Time;durP1;ratioP1;P1;durP2;ratioP2;P2;SDS_P1;SDS_P2;PMS_P1;PMS_P2;Temp;Humidity;BMP_temperature;BMP_pressure;BME280_temperature;BME280_humidity;BME280_pressure;Samples;Min_cycle;Max_cycle;Signal;HPM_P1;HPM_P2
2023/03/27 00:00:46;;;;;;;17.60;2.22;;;;;;;9.80;73.63;100404.84;5040533;28;20038;-63
2023/03/27 00:03:13;;;;;;;16.98;1.52;;;;;;;9.85;73.59;100399.59;5040408;28;20022;-63
2023/03/27 00:05:40;;;;;;;17.93;1.80;;;;;;;9.86;73.55;100411.88;5040185;28;20052;-63
2023/03/27 00:08:10;;;;;;;13.68;1.40;;;;;;;9.89;73.46;100404.00;5039648;28;20065;-63
2023/03/27 00:10:37;;;;;;;18.45;1.45;;;;;;;9.89;73.66;100407.50;5040151;28;20111;-63
2023/03/27 00:13:04;;;;;;;15.20;1.15;;;;;;;9.90;73.40;100416.25;5039979;28;20033;-63
2023/03/27 00:15:31;;;;;;;14.15;1.45;;;;;;;9.90;74.03;100413.63;5040018;28;20029;-63
2023/03/27 00:17:57;;;;;;;18.03;2.40;;;;;;;9.90;74.01;100418.91;5059624;28;20132;-63
2023/03/27 00:20:25;;;;;;;16.10;1.75;;;;;;;9.89;73.99;100420.66;5052882;28;20075;-63
2023/03/27 00:22:55;;;;;;;18.20;1.92;;;;;;;9.90;74.61;100418.91;5059626;28;20086;-63
2023/03/27 00:25:26;;;;;;;13.93;1.52;;;;;;;9.88;74.94;100423.28;5059936;28;20029;-63
2023/03/27 00:27:55;;;;;;;22.13;2.22;;;;;;;9.85;74.76;100428.53;5059944;28;20037;-63
2023/03/27 00:30:21;;;;;;;16.80;1.40;;;;;;;9.86;74.96;100428.53;5053654;28;20466;-63
2023/03/27 00:32:47;;;;;;;14.38;1.55;;;;;;;9.85;75.29;100431.16;5039901;28;20032;-63
2023/03/27 00:35:13;;;;;;;15.20;1.20;;;;;;;9.87;75.24;100429.41;5039619;28;20482;-63
2023/03/27 00:37:39;;;;;;;17.03;1.63;;;;;;;9.87;74.94;100430.28;5039688;28;20104;-63
2023/03/27 00:40:14;;;;;;;12.10;1.52;;;;;;;9.90;75.02;100429.41;5039324;28;20028;-63
2023/03/27 00:42:40;;;;;;;18.85;1.83;;;;;;;9.91;75.04;100425.91;5039321;28;20044;-63
2023/03/27 00:45:06;;;;;;;17.17;2.20;;;;;;;9.92;75.40;100427.66;5038133;28;20450;-63
2023/03/27 00:47:36;;;;;;;15.60;1.55;;;;;;;9.91;74.93;100431.16;5039608;28;20068;-63
2023/03/27 00:50:09;;;;;;;15.68;1.60;;;;;;;9.92;75.13;100438.19;5039251;28;20056;-63
2023/03/27 00:52:37;;;;;;;14.45;1.20;;;;;;;9.92;75.06;100443.44;5039401;28;20500;-63
2023/03/27 00:55:07;;;;;;;15.98;1.95;;;;;;;9.87;75.46;100440.81;5038937;28;20083;-63
2023/03/27 00:57:33;;;;;;;20.60;1.77;;;;;;;9.86;75.32;100440.81;5038135;28;20079;-63
2023/03/27 01:00:01;;;;;;;13.88;1.83;;;;;;;9.83;75.25;100449.56;5037883;28;20021;-62
2023/03/27 01:02:27;;;;;;;18.35;1.63;;;;;;;9.79;75.44;100447.81;5039419;28;20527;-63
2023/03/27 01:04:53;;;;;;;17.10;1.50;;;;;;;9.76;75.24;100446.03;5038966;28;20033;-63
2023/03/27 01:07:21;;;;;;;15.10;1.63;;;;;;;9.74;74.98;100447.78;5039073;28;20041;-63
2023/03/27 01:09:47;;;;;;;14.77;1.30;;;;;;;9.75;74.93;100452.16;5038107;28;20460;-63
2023/03/27 01:12:16;;;;;;;15.38;1.40;;;;;;;9.74;74.95;100445.16;5037675;28;20045;-63
2023/03/27 01:15:19;;;;;;;16.27;1.17;;;;;;;9.70;74.99;100458.31;5038656;28;20029;-63
2023/03/27 01:18:16;;;;;;;16.73;1.90;;;;;;;9.67;74.89;100458.31;5050423;28;20112;-63
2023/03/27 01:20:57;;;;;;;18.80;1.63;;;;;;;9.65;74.82;100463.56;5036241;28;20037;-63
2023/03/27 01:24:00;;;;;;;15.25;1.40;;;;;;;9.60;74.86;100452.16;5038564;28;20021;-63
2023/03/27 01:26:37;;;;;;;13.68;1.42;;;;;;;9.59;74.66;100456.53;5038795;28;20021;-63
2023/03/27 01:29:20;;;;;;;13.82;1.20;;;;;;;9.59;74.87;100453.88;5038517;28;20668;-63
2023/03/27 01:32:22;;;;;;;20.07;1.63;;;;;;;9.58;75.03;100460.03;5038395;28;20029;-63
2023/03/27 01:35:07;;;;;;;15.93;1.55;;;;;;;9.57;75.10;100463.53;5037326;28;20025;-63
2023/03/27 01:38:05;;;;;;;17.02;1.48;;;;;;;9.58;74.95;100469.69;5037211;28;20030;-63
2023/03/27 01:40:40;;;;;;;16.88;2.08;;;;;;;9.57;75.28;100467.94;5036191;28;20041;-63
2023/03/27 01:43:05;;;;;;;14.27;1.30;;;;;;;9.57;75.22;100457.41;5032208;28;20394;-63
2023/03/27 01:45:47;;;;;;;14.17;1.63;;;;;;;9.61;75.20;100462.66;5038618;28;20024;-63
2023/03/27 01:48:18;;;;;;;16.45;1.88;;;;;;;9.63;75.13;100473.19;5038211;28;20032;-63
2023/03/27 01:50:43;;;;;;;17.97;1.60;;;;;;;9.63;75.40;100470.56;5038210;28;20106;-63
2023/03/27 01:53:24;;;;;;;16.80;1.40;;;;;;;9.63;75.48;100470.56;5037799;28;20104;-63
2023/03/27 01:55:57;;;;;;;13.93;1.08;;;;;;;9.63;75.49;100467.94;5038343;28;20025;-63
2023/03/27 01:58:32;;;;;;;16.98;1.42;;;;;;;9.66;75.39;100467.94;5038063;28;20143;-63
2023/03/27 02:01:00;;;;;;;14.73;1.45;;;;;;;9.66;75.14;100467.06;5036712;28;20113;-63
2023/03/27 02:03:32;;;;;;;14.52;1.10;;;;;;;9.68;75.14;100462.69;5036650;28;20029;-63
2023/03/27 02:06:04;;;;;;;12.30;1.47;;;;;;;9.68;75.21;100460.06;5037846;28;20064;-63
2023/03/27 02:08:41;;;;;;;18.48;1.60;;;;;;;9.68;75.12;100466.19;5036100;28;20021;-63
2023/03/27 02:11:07;;;;;;;13.80;1.20;;;;;;;9.68;75.27;100463.56;5037193;28;20099;-63
2023/03/27 02:13:50;;;;;;;15.07;1.27;;;;;;;9.68;75.35;100466.19;5039230;28;20041;-63
2023/03/27 02:16:21;;;;;;;11.50;1.00;;;;;;;9.66;75.15;100467.94;5041567;28;20515;-64
2023/03/27 02:18:53;;;;;;;11.63;1.42;;;;;;;9.66;75.24;100465.31;5037743;28;20056;-63
2023/03/27 02:21:18;;;;;;;16.38;1.15;;;;;;;9.66;75.23;100467.94;5037651;28;20029;-63
2023/03/27 02:23:44;;;;;;;12.77;1.57;;;;;;;9.65;75.27;100462.69;5037330;28;20068;-63
2023/03/27 02:26:12;;;;;;;12.20;1.10;;;;;;;9.66;75.77;100473.19;5037640;28;20025;-63
2023/03/27 02:29:19;;;;;;;11.43;1.60;;;;;;;9.66;75.83;100467.94;5037619;28;20032;-63
2023/03/27 02:32:19;;;;;;;15.15;1.38;;;;;;;9.66;75.84;100470.56;5037754;28;20045;-63
2023/03/27 02:35:02;;;;;;;9.10;1.05;;;;;;;9.66;75.77;100473.19;5037596;28;20022;-63
2023/03/27 02:37:49;;;;;;;12.30;1.50;;;;;;;9.67;75.72;100472.31;5037661;28;20367;-63
2023/03/27 02:40:34;;;;;;;10.88;1.00;;;;;;;9.71;75.58;100468.81;5037392;28;20401;-63
2023/03/27 02:43:07;;;;;;;14.93;1.40;;;;;;;9.71;75.69;100471.44;5030541;28;20017;-63
2023/03/27 02:46:09;;;;;;;12.10;1.10;;;;;;;9.71;75.77;100471.44;5037538;28;20595;-63
2023/03/27 02:48:47;;;;;;;12.48;1.40;;;;;;;9.71;75.75;100470.59;5033146;28;20069;-63
2023/03/27 02:51:28;;;;;;;12.43;1.40;;;;;;;9.66;76.21;100465.31;5037398;28;20137;-63
2023/03/27 02:53:59;;;;;;;11.57;1.33;;;;;;;9.66;76.12;100467.94;5037194;28;20028;-63
2023/03/27 02:56:30;;;;;;;13.80;1.20;;;;;;;9.67;75.83;100469.69;5037118;28;20025;-63
2023/03/27 02:59:04;;;;;;;10.88;1.20;;;;;;;9.66;76.04;100470.56;5037374;28;20039;-63
2023/03/27 03:01:31;;;;;;;18.25;1.38;;;;;;;9.70;75.96;100476.72;5037083;28;20516;-63
2023/03/27 03:04:06;;;;;;;13.23;0.80;;;;;;;9.66;76.06;100477.59;5035699;28;20013;-63
2023/03/27 03:06:32;;;;;;;12.55;1.60;;;;;;;9.63;76.21;100476.69;5037199;28;20044;-63
2023/03/27 03:09:00;;;;;;;17.27;1.63;;;;;;;9.64;76.11;100488.09;5037012;28;20474;-63
2023/03/27 03:11:27;;;;;;;14.25;1.65;;;;;;;9.62;76.12;100492.47;5043298;28;20118;-63
2023/03/27 03:13:53;;;;;;;12.52;1.05;;;;;;;9.60;76.09;100488.97;5048028;28;20025;-63
2023/03/27 03:16:18;;;;;;;15.77;1.70;;;;;;;9.62;76.00;100497.72;5036834;28;20052;-63
2023/03/27 03:18:44;;;;;;;13.95;1.38;;;;;;;9.61;75.94;100501.25;5056815;28;20118;-63
2023/03/27 03:21:09;;;;;;;12.53;1.27;;;;;;;9.60;76.12;100504.75;5041676;28;20037;-63
2023/03/27 03:23:34;;;;;;;17.17;1.57;;;;;;;9.58;76.24;100501.22;5035810;28;20386;-63
2023/03/27 03:26:00;;;;;;;11.97;1.00;;;;;;;9.58;76.14;100506.50;5036788;28;20018;-63
2023/03/27 03:28:26;;;;;;;13.68;1.40;;;;;;;9.57;76.33;100502.97;5036739;28;20072;-63
2023/03/27 03:30:52;;;;;;;14.77;1.00;;;;;;;9.58;76.18;100511.75;5036395;28;20034;-63
2023/03/27 03:33:19;;;;;;;16.70;1.90;;;;;;;9.58;76.07;100517.00;5035516;28;20037;-63
2023/03/27 03:35:49;;;;;;;14.23;1.40;;;;;;;9.58;76.33;100515.22;5036647;28;20032;-63
2023/03/27 03:38:23;;;;;;;21.00;1.70;;;;;;;9.60;75.95;100520.50;5036221;28;20049;-63
2023/03/27 03:40:52;;;;;;;15.98;2.03;;;;;;;9.61;76.00;100517.00;5036481;28;20014;-63
2023/03/27 03:43:19;;;;;;;10.60;1.25;;;;;;;9.62;76.17;100524.03;5036648;28;20075;-63
2023/03/27 03:45:45;;;;;;;12.13;1.20;;;;;;;9.61;75.92;100528.38;5036627;28;20017;-63
2023/03/27 03:48:10;;;;;;;13.97;1.20;;;;;;;9.61;76.14;100527.53;5036713;28;20052;-63
2023/03/27 03:50:35;;;;;;;15.47;1.40;;;;;;;9.64;75.94;100532.78;5035243;28;20053;-62
2023/03/27 03:53:01;;;;;;;13.47;1.47;;;;;;;9.62;76.16;100530.16;5036108;28;20790;-63
2023/03/27 03:55:26;;;;;;;14.18;1.95;;;;;;;9.66;76.23;100532.81;5036721;28;20104;-63
2023/03/27 03:57:52;;;;;;;13.63;2.03;;;;;;;9.67;76.30;100538.06;5036435;28;20017;-63
2023/03/27 04:00:18;;;;;;;12.73;1.30;;;;;;;9.68;76.38;100544.22;5036365;28;20021;-63
2023/03/27 04:02:44;;;;;;;19.90;2.28;;;;;;;9.68;76.21;100538.97;5036496;28;20735;-63
2023/03/27 04:05:09;;;;;;;17.15;1.38;;;;;;;9.69;76.19;100544.22;5036730;28;20037;-63
2023/03/27 04:07:35;;;;;;;13.87;1.40;;;;;;;9.67;76.22;100550.34;5051513;28;20025;-63
2023/03/27 04:10:02;;;;;;;12.53;1.40;;;;;;;9.65;76.25;100550.31;5039602;28;20046;-63
2023/03/27 04:12:28;;;;;;;14.32;1.40;;;;;;;9.61;76.22;100549.44;5036652;28;20025;-63
2023/03/27 04:14:54;;;;;;;14.27;1.35;;;;;;;9.61;76.17;100553.81;5036300;28;20028;-63
2023/03/27 04:17:21;;;;;;;15.50;1.65;;;;;;;9.58;76.05;100553.81;5051384;28;20072;-63
2023/03/27 04:19:47;;;;;;;13.47;1.60;;;;;;;9.55;76.37;100548.53;5052739;28;20056;-63
2023/03/27 04:22:16;;;;;;;15.73;1.70;;;;;;;9.52;76.76;100544.13;5036479;28;20079;-63
2023/03/27 04:24:43;;;;;;;15.55;1.50;;;;;;;9.52;76.32;100545.88;5036024;28;20453;-63
2023/03/27 04:27:10;;;;;;;15.70;1.20;;;;;;;9.48;76.39;100552.88;5036296;28;20025;-63
2023/03/27 04:29:35;;;;;;;20.85;1.77;;;;;;;9.45;76.65;100552.88;5036240;28;20038;-63
2023/03/27 04:32:01;;;;;;;15.57;1.40;;;;;;;9.44;76.79;100551.97;5036423;28;20108;-63
2023/03/27 04:34:26;;;;;;;12.87;1.23;;;;;;;9.45;77.02;100545.00;5038681;28;20096;-63
2023/03/27 04:36:51;;;;;;;16.27;1.50;;;;;;;9.47;76.50;100551.13;5039884;28;20478;-63
2023/03/27 04:39:17;;;;;;;14.43;1.60;;;;;;;9.47;76.62;100557.25;5039607;28;20489;-63
2023/03/27 04:41:49;;;;;;;13.47;1.40;;;;;;;9.51;76.52;100565.16;5039783;28;20040;-63
2023/03/27 04:44:17;;;;;;;12.05;1.67;;;;;;;9.52;76.51;100561.66;5039990;28;20025;-63
2023/03/27 04:46:43;;;;;;;11.43;1.20;;;;;;;9.53;76.73;100572.19;5039651;28;20025;-63
2023/03/27 04:49:09;;;;;;;18.35;1.63;;;;;;;9.55;76.58;100564.31;5039798;28;20029;-63
2023/03/27 04:51:35;;;;;;;11.20;1.33;;;;;;;9.54;76.70;100573.06;5039666;28;20034;-63
2023/03/27 04:54:04;;;;;;;15.07;1.63;;;;;;;9.51;76.75;100571.28;5039426;28;20026;-63
2023/03/27 04:56:30;;;;;;;17.13;1.50;;;;;;;9.50;76.54;100569.53;5039574;28;20401;-63
2023/03/27 04:58:55;;;;;;;9.55;1.02;;;;;;;9.48;76.55;100580.03;5039826;28;20017;-63
2023/03/27 05:01:21;;;;;;;14.17;1.60;;;;;;;9.47;76.56;100582.69;5039423;28;20044;-63
2023/03/27 05:03:48;;;;;;;19.70;1.80;;;;;;;9.45;76.49;100581.78;5048022;28;20028;-63
2023/03/27 05:06:14;;;;;;;13.35;1.58;;;;;;;9.42;76.56;100585.25;5039656;28;20018;-63
2023/03/27 05:08:40;;;;;;;17.17;1.85;;;;;;;9.42;76.19;100590.53;5038759;28;20410;-63
2023/03/27 05:11:06;;;;;;;13.82;1.63;;;;;;;9.40;76.34;100605.41;5039147;28;20123;-63
2023/03/27 05:13:32;;;;;;;11.70;1.50;;;;;;;9.39;76.38;100606.28;5039594;28;20029;-63
2023/03/27 05:15:57;;;;;;;9.57;1.17;;;;;;;9.39;76.26;100601.03;5042614;28;20024;-63
2023/03/27 05:18:23;;;;;;;16.83;1.50;;;;;;;9.39;75.87;100616.78;5059181;28;20045;-63
2023/03/27 05:20:48;;;;;;;10.07;1.10;;;;;;;9.39;76.08;100622.06;5046827;28;20061;-63
2023/03/27 05:23:15;;;;;;;15.77;1.27;;;;;;;9.41;75.88;100617.69;5038902;28;20478;-63
2023/03/27 05:25:41;;;;;;;18.00;1.73;;;;;;;9.44;75.99;100620.31;5039008;28;20053;-63
2023/03/27 05:28:07;;;;;;;18.65;2.13;;;;;;;9.44;75.90;100630.84;5039233;28;20060;-64
2023/03/27 05:30:33;;;;;;;13.73;1.30;;;;;;;9.46;75.95;100629.09;5038800;28;20477;-63
2023/03/27 05:32:58;;;;;;;12.55;1.45;;;;;;;9.48;75.71;100629.97;5039071;28;20048;-63
2023/03/27 05:35:26;;;;;;;14.60;1.50;;;;;;;9.50;75.92;100630.00;5038923;28;20033;-63
2023/03/27 05:37:53;;;;;;;14.27;1.58;;;;;;;9.51;75.83;100631.75;5038530;28;20018;-63
2023/03/27 05:40:24;;;;;;;12.00;1.25;;;;;;;9.51;75.89;100631.75;5038835;28;20025;-63
2023/03/27 05:42:50;;;;;;;10.45;0.98;;;;;;;9.53;76.12;100635.28;5037350;28;20029;-63
2023/03/27 05:45:16;;;;;;;12.70;1.77;;;;;;;9.55;75.94;100638.78;5037935;28;20100;-63
2023/03/27 05:47:53;;;;;;;14.60;1.30;;;;;;;9.57;76.05;100644.94;5038663;28;20343;-63
2023/03/27 05:50:21;;;;;;;14.70;1.55;;;;;;;9.57;76.23;100646.72;5038679;28;20033;-63
2023/03/27 05:52:56;;;;;;;13.88;1.50;;;;;;;9.56;76.21;100645.81;5036794;28;20036;-63
2023/03/27 05:55:23;;;;;;;15.32;1.50;;;;;;;9.59;76.08;100642.34;5038673;28;20079;-64
2023/03/27 05:57:49;;;;;;;14.93;1.20;;;;;;;9.61;76.21;100645.84;5039896;28;20021;-64
2023/03/27 06:00:15;;;;;;;18.88;1.95;;;;;;;9.62;75.92;100645.84;5046164;28;20031;-64
2023/03/27 06:02:43;;;;;;;13.95;1.85;;;;;;;9.64;75.85;100645.88;5058118;28;20040;-63
2023/03/27 06:05:14;;;;;;;12.40;1.37;;;;;;;9.66;75.79;100649.38;5044029;28;20033;-64
2023/03/27 06:07:39;;;;;;;13.32;1.63;;;;;;;9.68;75.75;100650.25;5035660;28;20025;-64
2023/03/27 06:10:09;;;;;;;16.10;1.67;;;;;;;9.73;75.55;100656.41;5023899;28;20046;-64
2023/03/27 06:12:35;;;;;;;11.68;1.35;;;;;;;9.83;75.67;100656.50;5036690;28;20033;-64
2023/03/27 06:15:03;;;;;;;14.87;1.83;;;;;;;10.00;74.96;100662.69;5038093;28;20047;-62
2023/03/27 06:17:28;;;;;;;17.42;2.45;;;;;;;10.11;74.95;100657.47;5054071;28;20444;-64
2023/03/27 06:19:55;;;;;;;19.03;1.80;;;;;;;10.23;74.51;100664.53;5053402;28;20018;-64
2023/03/27 06:22:20;;;;;;;12.75;1.70;;;;;;;10.38;73.88;100655.84;5037919;28;20675;-64
2023/03/27 06:24:46;;;;;;;12.17;1.97;;;;;;;10.49;73.85;100661.19;5037646;28;20036;-64
2023/03/27 06:27:12;;;;;;;18.55;1.77;;;;;;;10.60;73.55;100651.53;5037515;28;20558;-64
2023/03/27 06:29:37;;;;;;;11.17;1.43;;;;;;;10.75;72.84;100652.44;5037783;28;20025;-62
2023/03/27 06:32:03;;;;;;;14.63;1.77;;;;;;;10.87;72.46;100664.75;5037802;28;20036;-63
2023/03/27 06:34:29;;;;;;;19.15;1.70;;;;;;;10.86;72.82;100666.50;5036635;28;20505;-63
2023/03/27 06:36:54;;;;;;;18.47;1.70;;;;;;;10.73;72.98;100685.78;5035748;28;20112;-64
2023/03/27 06:39:20;;;;;;;15.80;1.90;;;;;;;10.59;73.35;100685.75;5044582;28;20485;-64
2023/03/27 06:41:46;;;;;;;14.75;1.50;;;;;;;10.45;74.15;100685.72;5045716;28;20029;-63
2023/03/27 06:44:11;;;;;;;19.97;2.20;;;;;;;10.36;74.27;100685.66;5037501;28;20089;-63
2023/03/27 06:46:37;;;;;;;13.90;2.03;;;;;;;10.27;74.64;100684.78;5037114;28;20021;-63
2023/03/27 06:49:02;;;;;;;16.10;1.43;;;;;;;10.40;74.21;100683.09;5036943;28;20053;-64
2023/03/27 06:51:28;;;;;;;13.43;1.60;;;;;;;10.54;74.10;100693.66;5035867;28;20056;-63
2023/03/27 06:53:53;;;;;;;15.00;1.50;;;;;;;10.69;73.51;100695.47;5037102;28;20061;-64
2023/03/27 06:56:19;;;;;;;13.07;1.50;;;;;;;10.69;73.54;100694.56;5039267;28;20025;-64
2023/03/27 06:58:44;;;;;;;17.53;1.70;;;;;;;10.61;73.71;100687.53;5032791;28;20478;-64
2023/03/27 07:01:10;;;;;;;10.75;1.75;;;;;;;10.56;74.00;100694.53;5039737;28;20029;-64
2023/03/27 07:03:36;;;;;;;17.37;2.27;;;;;;;10.51;73.93;100698.94;5042120;28;20076;-64
2023/03/27 07:06:01;;;;;;;14.27;1.60;;;;;;;10.48;74.08;100701.53;5043349;28;20017;-64
2023/03/27 07:08:27;;;;;;;17.10;1.70;;;;;;;10.50;74.14;100710.34;5038945;28;20030;-64
2023/03/27 07:10:53;;;;;;;13.53;2.00;;;;;;;10.63;73.97;100704.22;5036364;28;20145;-64
2023/03/27 07:13:18;;;;;;;15.13;1.40;;;;;;;10.67;74.15;100699.84;5035234;28;20028;-64
2023/03/27 07:15:44;;;;;;;10.33;1.40;;;;;;;10.83;73.88;100692.84;5038224;28;20052;-64
2023/03/27 07:18:10;;;;;;;14.23;2.92;;;;;;;11.01;73.14;100696.41;5057010;28;20020;-64
2023/03/27 07:20:35;;;;;;;17.90;1.77;;;;;;;11.08;72.60;100700.78;5046307;28;20033;-64
2023/03/27 07:23:02;;;;;;;18.63;1.90;;;;;;;11.08;72.60;100700.78;5036429;28;20264;-64
2023/03/27 07:25:36;;;;;;;17.45;1.73;;;;;;;11.03;72.88;100703.41;5036648;28;20029;-64
2023/03/27 07:28:08;;;;;;;13.03;2.07;;;;;;;11.01;72.69;100704.31;5036734;28;20113;-64
2023/03/27 07:30:34;;;;;;;11.70;1.60;;;;;;;10.95;73.24;100704.28;5036260;28;20024;-64
2023/03/27 07:33:00;;;;;;;14.85;1.92;;;;;;;10.86;73.33;100705.16;5035172;28;20033;-64
2023/03/27 07:35:26;;;;;;;10.18;1.10;;;;;;;10.80;73.44;100707.75;5035113;28;20516;-64
2023/03/27 07:37:53;;;;;;;10.40;1.50;;;;;;;10.73;73.21;100714.75;5034916;28;20493;-64
2023/03/27 07:40:22;;;;;;;15.07;1.45;;;;;;;10.67;73.41;100722.66;5035190;28;20052;-64
2023/03/27 07:42:48;;;;;;;11.75;1.10;;;;;;;10.66;73.52;100723.53;5035044;28;20036;-64
2023/03/27 07:45:16;;;;;;;15.83;1.33;;;;;;;10.61;73.86;100724.41;5036219;28;20188;-64
2023/03/27 07:47:42;;;;;;;13.38;1.50;;;;;;;10.61;74.11;100724.41;5036670;28;20056;-64
2023/03/27 07:50:10;;;;;;;11.23;1.30;;;;;;;10.66;73.56;100727.06;5034917;28;20033;-64
2023/03/27 07:52:39;;;;;;;14.45;1.20;;;;;;;10.71;73.91;100737.59;5048579;28;20028;-64
2023/03/27 07:55:06;;;;;;;14.40;1.40;;;;;;;10.77;73.40;100735.84;5054880;28;20025;-65
2023/03/27 07:57:32;;;;;;;11.03;1.40;;;;;;;10.86;73.68;100737.63;5047274;28;20077;-64
2023/03/27 07:59:58;;;;;;;11.10;1.50;;;;;;;10.94;73.07;100734.13;5036432;28;20667;-65
2023/03/27 08:02:26;;;;;;;14.57;1.27;;;;;;;11.01;72.72;100728.03;5036399;28;20041;-65
2023/03/27 08:04:53;;;;;;;11.10;1.67;;;;;;;11.06;72.91;100742.06;5035907;28;20566;-64
2023/03/27 08:07:21;;;;;;;13.07;1.58;;;;;;;11.08;72.26;100735.06;5036328;28;20025;-65
2023/03/27 08:09:47;;;;;;;11.88;1.23;;;;;;;11.15;72.34;100736.81;5037310;28;20025;-64
2023/03/27 08:12:14;;;;;;;14.00;1.30;;;;;;;11.18;71.76;100734.16;5040445;28;20021;-65
2023/03/27 08:14:39;;;;;;;12.67;1.40;;;;;;;11.23;72.03;100743.88;5038328;28;20113;-65
2023/03/27 08:17:05;;;;;;;11.07;1.38;;;;;;;11.26;71.76;100746.50;5053045;28;20028;-64
2023/03/27 08:19:32;;;;;;;21.63;2.13;;;;;;;11.27;72.29;100745.63;5058704;28;20403;-64
2023/03/27 08:21:57;;;;;;;14.68;1.45;;;;;;;11.31;72.04;100747.38;5040192;28;20032;-64
2023/03/27 08:24:23;;;;;;;15.13;1.83;;;;;;;11.33;72.04;100746.50;5037745;28;20029;-64
2023/03/27 08:26:49;;;;;;;18.23;1.33;;;;;;;11.40;71.68;100739.47;5040134;28;20107;-65
2023/03/27 08:29:15;;;;;;;13.47;1.50;;;;;;;11.49;71.96;100752.66;5038703;28;20398;-64
2023/03/27 08:31:41;;;;;;;14.23;1.45;;;;;;;11.59;71.72;100747.38;5040037;28;20022;-64
2023/03/27 08:34:08;;;;;;;12.20;1.30;;;;;;;11.64;72.02;100758.78;5039606;28;20048;-63
2023/03/27 08:36:33;;;;;;;12.38;1.35;;;;;;;11.69;71.37;100754.38;5039082;28;20021;-63
2023/03/27 08:39:01;;;;;;;10.50;1.40;;;;;;;11.71;70.59;100752.66;5045130;28;20489;-63
2023/03/27 08:41:37;;;;;;;13.70;1.15;;;;;;;11.70;70.65;100750.91;5043057;28;20101;-63
2023/03/27 08:44:05;;;;;;;11.85;1.42;;;;;;;11.72;70.32;100754.41;5025985;28;20036;-63
2023/03/27 08:46:38;;;;;;;9.90;1.57;;;;;;;11.77;70.39;100754.38;5039243;28;20025;-63
2023/03/27 08:49:15;;;;;;;13.52;1.40;;;;;;;11.87;70.37;100753.50;5048922;28;20025;-63
2023/03/27 08:51:46;;;;;;;13.85;1.42;;;;;;;11.95;70.22;100756.16;5058364;28;20037;-63
2023/03/27 08:54:22;;;;;;;11.45;1.40;;;;;;;11.95;69.76;100749.97;5055305;28;20017;-63
2023/03/27 08:56:48;;;;;;;10.98;1.75;;;;;;;11.95;69.35;100756.16;5039077;28;20033;-63
2023/03/27 08:59:20;;;;;;;11.47;1.37;;;;;;;11.93;69.88;100757.88;5039494;28;20433;-63
2023/03/27 09:01:51;;;;;;;13.55;1.75;;;;;;;11.95;69.50;100760.53;5045249;28;20017;-63
2023/03/27 09:04:25;;;;;;;11.60;1.50;;;;;;;11.96;69.18;100757.91;5051961;28;20060;-63
2023/03/27 09:07:33;;;;;;;13.70;1.45;;;;;;;12.00;68.58;100759.66;5039138;28;20026;-63
2023/03/27 09:10:22;;;;;;;13.32;1.45;;;;;;;12.09;68.69;100752.59;5025809;28;20041;-63
2023/03/27 09:13:06;;;;;;;11.97;1.30;;;;;;;12.10;68.41;100759.66;5038605;28;20486;-63
2023/03/27 09:15:36;;;;;;;12.13;1.48;;;;;;;12.13;68.18;100757.00;5033559;28;20026;-63
2023/03/27 09:18:22;;;;;;;12.93;1.45;;;;;;;12.17;68.01;100751.72;5058993;28;20098;-63
2023/03/27 09:21:02;;;;;;;14.38;1.65;;;;;;;12.25;67.91;100756.97;5045785;28;20940;-63
2023/03/27 09:23:35;;;;;;;15.25;1.88;;;;;;;12.35;67.14;100763.09;5038438;28;20038;-63
2023/03/27 09:26:07;;;;;;;12.43;1.50;;;;;;;12.44;66.39;100763.06;5038697;28;20030;-63
2023/03/27 09:28:49;;;;;;;15.75;1.40;;;;;;;12.55;66.36;100763.03;5038722;28;20047;-63
2023/03/27 09:31:20;;;;;;;11.43;1.23;;;;;;;12.63;65.19;100745.34;5038905;28;20036;-63
2023/03/27 09:33:46;;;;;;;15.75;1.98;;;;;;;12.62;64.45;100748.88;5037048;28;20033;-63
2023/03/27 09:36:11;;;;;;;11.63;1.13;;;;;;;12.63;65.11;100755.06;5038741;28;20110;-63
2023/03/27 09:38:41;;;;;;;11.70;1.27;;;;;;;12.66;65.39;100762.09;5037988;28;20701;-63
2023/03/27 09:41:13;;;;;;;7.18;1.05;;;;;;;12.61;66.25;100752.41;5042207;28;20033;-63
2023/03/27 09:43:43;;;;;;;13.43;1.10;;;;;;;12.60;66.60;100766.50;5044647;28;20033;-63
2023/03/27 09:46:16;;;;;;;11.13;1.33;;;;;;;12.49;67.01;100763.91;5042899;28;20029;-63
2023/03/27 09:49:20;;;;;;;9.43;0.90;;;;;;;12.40;66.90;100771.00;5038046;28;20040;-63
2023/03/27 09:51:55;;;;;;;9.67;1.20;;;;;;;12.33;67.58;100768.38;5035005;28;20040;-63
2023/03/27 09:54:30;;;;;;;9.40;1.30;;;;;;;12.31;67.58;100777.22;5036275;28;20040;-63
2023/03/27 09:57:03;;;;;;;10.20;1.52;;;;;;;12.26;68.18;100776.31;5038016;28;20064;-63
2023/03/27 09:59:36;;;;;;;9.38;1.17;;;;;;;12.20;68.45;100766.69;5038111;28;20040;-63
2023/03/27 10:02:36;;;;;;;8.75;0.80;;;;;;;12.11;68.40;100754.38;5047632;28;20509;-63
2023/03/27 10:05:10;;;;;;;11.87;1.30;;;;;;;12.15;68.00;100764.03;5022606;28;20025;-63
2023/03/27 10:07:38;;;;;;;12.73;1.02;;;;;;;12.19;68.68;100757.88;5030221;28;20033;-63
2023/03/27 10:10:10;;;;;;;8.43;0.95;;;;;;;12.41;68.50;100749.88;5036429;28;20045;-63
2023/03/27 10:12:36;;;;;;;10.60;1.17;;;;;;;12.61;67.73;100752.41;5038044;28;20155;-63
2023/03/27 10:15:04;;;;;;;8.63;0.90;;;;;;;12.75;67.07;100747.06;5037624;28;20051;-63
2023/03/27 10:17:36;;;;;;;10.97;1.10;;;;;;;12.99;67.37;100745.16;5053847;28;20517;-63
2023/03/27 10:20:12;;;;;;;9.15;0.80;;;;;;;13.41;65.97;100747.53;5052232;28;20017;-63
2023/03/27 10:22:49;;;;;;;10.77;1.23;;;;;;;13.81;65.30;100737.50;5037414;28;20573;-63
2023/03/27 10:25:33;;;;;;;8.70;0.90;;;;;;;14.08;64.55;100731.03;5038041;28;20060;-63
2023/03/27 10:28:14;;;;;;;12.82;1.25;;;;;;;14.28;63.40;100733.44;5042351;28;20041;-63
2023/03/27 10:30:40;;;;;;;10.77;1.20;;;;;;;14.33;63.43;100742.22;5036036;28;20029;-63
2023/03/27 10:33:06;;;;;;;10.57;0.80;;;;;;;14.25;63.29;100738.78;5036893;28;20029;-63
2023/03/27 10:35:44;;;;;;;8.60;0.80;;;;;;;14.10;62.19;100738.94;5037543;28;20091;-63
2023/03/27 10:38:13;;;;;;;10.48;1.23;;;;;;;13.97;63.60;100738.22;5037018;28;20033;-63
2023/03/27 10:40:40;;;;;;;7.70;0.82;;;;;;;13.88;63.77;100739.22;5043058;28;20036;-63
2023/03/27 10:43:11;;;;;;;9.40;1.10;;;;;;;13.84;63.61;100737.47;5037277;28;20041;-61
2023/03/27 10:45:48;;;;;;;7.47;1.10;;;;;;;13.86;63.46;100735.66;5057502;28;20056;-63
2023/03/27 10:48:32;;;;;;;12.55;0.80;;;;;;;13.90;62.77;100740.06;5042728;28;20033;-63
2023/03/27 10:51:03;;;;;;;8.25;1.02;;;;;;;13.97;61.87;100732.91;5037158;28;20030;-63
2023/03/27 10:53:36;;;;;;;8.30;1.02;;;;;;;14.00;61.24;100728.47;5041700;28;20040;-63
2023/03/27 10:56:10;;;;;;;7.20;0.87;;;;;;;13.99;60.91;100733.81;5045317;28;20032;-63
2023/03/27 10:58:50;;;;;;;8.13;0.90;;;;;;;13.92;59.79;100728.56;5036291;28;20108;-63
2023/03/27 11:01:27;;;;;;;8.18;0.80;;;;;;;13.88;59.77;100731.28;5035827;28;20060;-63
2023/03/27 11:04:18;;;;;;;7.47;0.88;;;;;;;13.75;59.55;100727.88;5038734;28;20060;-63
2023/03/27 11:06:45;;;;;;;5.45;0.80;;;;;;;13.74;60.00;100737.56;5037970;28;20029;-63
2023/03/27 11:09:22;;;;;;;7.93;0.80;;;;;;;13.74;59.47;100737.56;5035081;28;20017;-63
2023/03/27 11:11:52;;;;;;;13.20;1.13;;;;;;;13.71;59.54;100740.25;5037983;28;20045;-63
2023/03/27 11:14:31;;;;;;;6.82;0.93;;;;;;;13.66;59.10;100744.72;5038077;28;20053;-63
2023/03/27 11:17:04;;;;;;;5.88;0.70;;;;;;;13.62;59.69;100733.25;5037786;28;20063;-63
2023/03/27 11:19:41;;;;;;;5.57;0.70;;;;;;;13.63;59.57;100734.16;5036852;28;20033;-63
2023/03/27 11:22:22;;;;;;;5.67;0.80;;;;;;;13.68;59.84;100740.28;5037591;28;20029;-64
2023/03/27 11:25:04;;;;;;;6.28;0.90;;;;;;;13.75;60.24;100728.72;5036998;28;20036;-63
2023/03/27 11:27:37;;;;;;;5.75;0.77;;;;;;;13.83;59.60;100731.31;5037827;28;20068;-64
2023/03/27 11:30:11;;;;;;;6.20;1.00;;;;;;;13.91;58.31;100742.69;5036107;28;20037;-63
2023/03/27 11:32:59;;;;;;;5.70;0.70;;;;;;;14.06;58.74;100739.00;5040829;28;20047;-64
2023/03/27 11:35:32;;;;;;;9.53;1.07;;;;;;;14.25;56.63;100738.78;5037729;28;20439;-63
2023/03/27 11:38:03;;;;;;;10.15;0.70;;;;;;;14.35;57.48;100731.63;5035829;28;20096;-64